El Plumerillo Airport


Codes: SAME/MDZ
Name: El Plumerillo Airport
City: Mendoza
Country: Argentina
Elevation: 2310 ft.
Wikipedia:

Photos at El Plumerillo Airport


   Photos courtesy of SpottingLog. You can add your own sightings and photos by signing up for a free trial today.



No photos found.

Weather at El Plumerillo Airport


Time (UTC)DescriptionTempratureWindCloud coverageVisibilityPressureHumidity
21-Jun-2024 12:00Scattered Clouds9°C4 mph, S40%10000m1006hPa76%
21-Jun-2024 15:00Scattered Clouds11°C11 mph, SE35%10000m1006hPa66%
21-Jun-2024 18:00Scattered Clouds14°C16 mph, S35%10000m1004hPa50%
21-Jun-2024 21:00Broken Clouds15°C16 mph, S53%10000m1003hPa37%
22-Jun-2024 00:00Scattered Clouds13°C11 mph, S50%10000m1005hPa42%
22-Jun-2024 03:00Scattered Clouds11°C4 mph, S28%10000m1008hPa48%
22-Jun-2024 06:00Few Clouds10°C7 mph, S16%10000m1008hPa54%
22-Jun-2024 09:00Clear Sky9°C4 mph, S9%10000m1008hPa59%
22-Jun-2024 12:00Clear Sky8°C2 mph, SW9%10000m1010hPa68%
22-Jun-2024 15:00Few Clouds12°C4 mph, SE19%10000m1009hPa62%
22-Jun-2024 18:00Few Clouds16°C9 mph, SE15%10000m1006hPa45%
22-Jun-2024 21:00Clear Sky15°C11 mph, SE0%10000m1008hPa44%
23-Jun-2024 00:00Clear Sky12°C7 mph, S0%10000m1012hPa59%
23-Jun-2024 03:00Light Rain9°C11 mph, SE59%10000m1017hPa86%
23-Jun-2024 06:00Light Rain9°C9 mph, SE80%10000m1017hPa81%
23-Jun-2024 09:00Light Rain6°C9 mph, SE100%10000m1019hPa77%
23-Jun-2024 12:00Light Rain6°C9 mph, SW100%10000m1020hPa78%
23-Jun-2024 15:00Overcast Clouds8°C7 mph, S100%10000m1020hPa51%
23-Jun-2024 18:00Broken Clouds10°C7 mph, SE78%10000m1018hPa38%
23-Jun-2024 21:00Broken Clouds10°C7 mph, SE51%10000m1019hPa35%
24-Jun-2024 00:00Broken Clouds9°C7 mph, SE57%10000m1022hPa38%
24-Jun-2024 03:00Broken Clouds7°C2 mph, SE63%10000m1024hPa40%
24-Jun-2024 06:00Broken Clouds6°C0 mph, SE68%10000m1026hPa40%
24-Jun-2024 09:00Overcast Clouds6°C7 mph, S95%10000m1027hPa50%
24-Jun-2024 12:00Overcast Clouds5°C9 mph, S96%10000m1030hPa67%
24-Jun-2024 15:00Overcast Clouds6°C4 mph, S96%10000m1030hPa64%
24-Jun-2024 18:00Light Rain7°C2 mph, S98%10000m1028hPa55%
24-Jun-2024 21:00Overcast Clouds7°C2 mph, SW100%10000m1028hPa55%
25-Jun-2024 00:00Overcast Clouds6°C4 mph, W100%10000m1028hPa60%
25-Jun-2024 03:00Overcast Clouds5°C2 mph, SW100%10000m1028hPa63%
25-Jun-2024 06:00Light Rain4°C2 mph, SW100%10000m1027hPa71%
25-Jun-2024 09:00Broken Clouds3°C2 mph, SE68%10000m1025hPa79%
25-Jun-2024 12:00Scattered Clouds3°C2 mph, SE49%10000m1024hPa80%
25-Jun-2024 15:00Scattered Clouds6°C2 mph, SE30%10000m1023hPa66%
25-Jun-2024 18:00Scattered Clouds8°C4 mph, SE38%10000m1019hPa56%
25-Jun-2024 21:00Few Clouds8°C2 mph, E20%10000m1019hPa54%
26-Jun-2024 00:00Few Clouds7°C4 mph, NE13%10000m1018hPa58%
26-Jun-2024 03:00Clear Sky6°C2 mph, NE0%10000m1017hPa59%
26-Jun-2024 06:00Clear Sky6°C2 mph, N0%10000m1015hPa59%
26-Jun-2024 09:00Clear Sky5°C2 mph, N0%10000m1014hPa61%